sensor_id;sensor_type;location;lat;lon;timestamp;pressure;altitude;pressure_sealevel;temperature;humidity
38912;BME280;28444;48.056;14.408;2023-04-07T00:01:29;97710.50;;;1.48;69.19
38912;BME280;28444;48.056;14.408;2023-04-07T00:04:17;97714.47;;;1.36;68.96
38912;BME280;28444;48.056;14.408;2023-04-07T00:07:04;97696.13;;;1.29;69.68
38912;BME280;28444;48.056;14.408;2023-04-07T00:09:51;97712.31;;;1.23;70.60
38912;BME280;28444;48.056;14.408;2023-04-07T00:12:38;97705.72;;;1.18;69.97
38912;BME280;28444;48.056;14.408;2023-04-07T00:15:25;97708.19;;;1.16;70.12
38912;BME280;28444;48.056;14.408;2023-04-07T00:18:12;97700.84;;;1.11;70.97
38912;BME280;28444;48.056;14.408;2023-04-07T00:20:59;97707.69;;;1.12;70.68
38912;BME280;28444;48.056;14.408;2023-04-07T00:23:46;97698.13;;;1.11;70.34
38912;BME280;28444;48.056;14.408;2023-04-07T00:26:33;97696.47;;;0.97;70.72
38912;BME280;28444;48.056;14.408;2023-04-07T00:29:20;97700.63;;;0.87;70.71
38912;BME280;28444;48.056;14.408;2023-04-07T00:32:07;97701.41;;;0.87;70.56
38912;BME280;28444;48.056;14.408;2023-04-07T00:34:54;97698.69;;;0.82;70.81
38912;BME280;28444;48.056;14.408;2023-04-07T00:37:41;97699.19;;;0.86;71.16
38912;BME280;28444;48.056;14.408;2023-04-07T00:40:28;97701.16;;;0.91;71.33
38912;BME280;28444;48.056;14.408;2023-04-07T00:43:15;97701.63;;;0.89;71.31
38912;BME280;28444;48.056;14.408;2023-04-07T00:46:02;97701.41;;;0.82;71.07
38912;BME280;28444;48.056;14.408;2023-04-07T00:48:49;97707.28;;;0.75;71.66
38912;BME280;28444;48.056;14.408;2023-04-07T00:51:36;97704.13;;;0.59;72.03
38912;BME280;28444;48.056;14.408;2023-04-07T00:54:23;97701.44;;;0.42;72.78
38912;BME280;28444;48.056;14.408;2023-04-07T00:57:11;97695.56;;;0.33;73.78
38912;BME280;28444;48.056;14.408;2023-04-07T00:59:58;97692.13;;;0.21;74.39
38912;BME280;28444;48.056;14.408;2023-04-07T01:02:57;97688.72;;;0.26;75.30
38912;BME280;28444;48.056;14.408;2023-04-07T01:05:53;97687.00;;;0.23;74.56
38912;BME280;28444;48.056;14.408;2023-04-07T01:09:33;97682.56;;;0.14;75.06
38912;BME280;28444;48.056;14.408;2023-04-07T01:15:20;97685.50;;;-0.01;76.18
38912;BME280;28444;48.056;14.408;2023-04-07T01:18:12;97684.53;;;0.03;75.53
38912;BME280;28444;48.056;14.408;2023-04-07T01:21:14;97676.72;;;0.05;75.97
38912;BME280;28444;48.056;14.408;2023-04-07T01:24:37;97667.41;;;0.06;75.64
38912;BME280;28444;48.056;14.408;2023-04-07T01:27:37;97669.88;;;0.15;74.52
38912;BME280;28444;48.056;14.408;2023-04-07T01:30:28;97669.63;;;0.24;74.08
38912;BME280;28444;48.056;14.408;2023-04-07T01:33:16;97662.78;;;0.34;73.89
38912;BME280;28444;48.056;14.408;2023-04-07T01:36:06;97665.97;;;0.38;73.39
38912;BME280;28444;48.056;14.408;2023-04-07T01:38:54;97665.97;;;0.44;73.47
38912;BME280;28444;48.056;14.408;2023-04-07T01:41:42;97666.69;;;0.44;73.34
38912;BME280;28444;48.056;14.408;2023-04-07T01:44:31;97669.38;;;0.50;72.96
38912;BME280;28444;48.056;14.408;2023-04-07T01:47:18;97660.31;;;0.53;73.03
38912;BME280;28444;48.056;14.408;2023-04-07T01:50:08;97666.69;;;0.50;73.29
38912;BME280;28444;48.056;14.408;2023-04-07T01:52:56;97664.72;;;0.45;73.20
38912;BME280;28444;48.056;14.408;2023-04-07T01:55:43;97660.06;;;0.40;73.98
38912;BME280;28444;48.056;14.408;2023-04-07T01:58:30;97655.22;;;0.33;73.82
38912;BME280;28444;48.056;14.408;2023-04-07T02:01:17;97653.00;;;0.31;74.05
38912;BME280;28444;48.056;14.408;2023-04-07T02:04:11;97656.66;;;0.34;74.10
38912;BME280;28444;48.056;14.408;2023-04-07T02:07:07;97648.34;;;0.32;73.74
38912;BME280;28444;48.056;14.408;2023-04-07T02:09:57;97645.88;;;0.39;74.10
38912;BME280;28444;48.056;14.408;2023-04-07T02:12:45;97650.53;;;0.39;73.37
38912;BME280;28444;48.056;14.408;2023-04-07T02:15:35;97649.34;;;0.34;73.37
38912;BME280;28444;48.056;14.408;2023-04-07T02:18:25;97644.94;;;0.37;73.29
38912;BME280;28444;48.056;14.408;2023-04-07T02:21:14;97645.66;;;0.32;73.73
38912;BME280;28444;48.056;14.408;2023-04-07T02:24:05;97650.06;;;0.35;73.48
38912;BME280;28444;48.056;14.408;2023-04-07T02:26:52;97643.22;;;0.22;73.38
38912;BME280;28444;48.056;14.408;2023-04-07T02:29:39;97643.22;;;0.17;73.85
38912;BME280;28444;48.056;14.408;2023-04-07T02:32:26;97639.31;;;0.12;74.05
38912;BME280;28444;48.056;14.408;2023-04-07T02:35:14;97644.91;;;0.14;75.02
38912;BME280;28444;48.056;14.408;2023-04-07T02:38:02;97635.38;;;0.02;75.72
38912;BME280;28444;48.056;14.408;2023-04-07T02:40:49;97641.50;;;-0.03;75.07
38912;BME280;28444;48.056;14.408;2023-04-07T02:43:36;97640.53;;;-0.06;75.47
38912;BME280;28444;48.056;14.408;2023-04-07T02:46:23;97638.78;;;-0.20;75.40
38912;BME280;28444;48.056;14.408;2023-04-07T02:49:10;97637.56;;;-0.25;75.71
38912;BME280;28444;48.056;14.408;2023-04-07T02:51:57;97632.41;;;-0.34;76.38
38912;BME280;28444;48.056;14.408;2023-04-07T02:54:44;97627.50;;;-0.41;76.45
38912;BME280;28444;48.056;14.408;2023-04-07T02:57:31;97627.78;;;-0.39;76.27
38912;BME280;28444;48.056;14.408;2023-04-07T03:00:18;97631.44;;;-0.36;76.73
38912;BME280;28444;48.056;14.408;2023-04-07T03:03:05;97632.88;;;-0.41;76.34
38912;BME280;28444;48.056;14.408;2023-04-07T03:05:53;97626.06;;;-0.42;76.56
38912;BME280;28444;48.056;14.408;2023-04-07T03:08:39;97626.78;;;-0.47;76.38
38912;BME280;28444;48.056;14.408;2023-04-07T03:11:27;97626.53;;;-0.49;76.87
38912;BME280;28444;48.056;14.408;2023-04-07T03:14:15;97619.19;;;-0.49;76.90
38912;BME280;28444;48.056;14.408;2023-04-07T03:17:02;97617.50;;;-0.46;76.84
38912;BME280;28444;48.056;14.408;2023-04-07T03:19:50;97610.88;;;-0.56;78.15
38912;BME280;28444;48.056;14.408;2023-04-07T03:22:37;97611.88;;;-0.42;77.23
38912;BME280;28444;48.056;14.408;2023-04-07T03:25:24;97612.63;;;-0.42;77.18
38912;BME280;28444;48.056;14.408;2023-04-07T03:28:12;97608.97;;;-0.39;76.52
38912;BME280;28444;48.056;14.408;2023-04-07T03:30:59;97611.38;;;-0.41;76.63
38912;BME280;28444;48.056;14.408;2023-04-07T03:33:46;97610.66;;;-0.41;76.36
38912;BME280;28444;48.056;14.408;2023-04-07T03:36:33;97610.91;;;-0.45;77.39
38912;BME280;28444;48.056;14.408;2023-04-07T03:39:20;97613.81;;;-0.65;77.83
38912;BME280;28444;48.056;14.408;2023-04-07T03:42:07;97611.59;;;-0.56;78.34
38912;BME280;28444;48.056;14.408;2023-04-07T03:44:54;97613.09;;;-0.49;78.44
38912;BME280;28444;48.056;14.408;2023-04-07T03:47:41;97607.00;;;-0.38;77.86
38912;BME280;28444;48.056;14.408;2023-04-07T03:50:28;97612.41;;;-0.33;77.37
38912;BME280;28444;48.056;14.408;2023-04-07T03:53:15;97604.81;;;-0.34;77.09
38912;BME280;28444;48.056;14.408;2023-04-07T03:56:02;97612.38;;;-0.38;77.27
38912;BME280;28444;48.056;14.408;2023-04-07T03:58:50;97612.56;;;-0.59;77.41
38912;BME280;28444;48.056;14.408;2023-04-07T04:01:37;97616.97;;;-0.56;77.90
38912;BME280;28444;48.056;14.408;2023-04-07T04:04:24;97615.03;;;-0.55;77.77
38912;BME280;28444;48.056;14.408;2023-04-07T04:07:11;97610.63;;;-0.64;77.85
38912;BME280;28444;48.056;14.408;2023-04-07T04:09:58;97610.13;;;-0.62;77.95
38912;BME280;28444;48.056;14.408;2023-04-07T04:12:46;97603.56;;;-0.61;78.10
38912;BME280;28444;48.056;14.408;2023-04-07T04:15:33;97605.47;;;-0.67;78.17
38912;BME280;28444;48.056;14.408;2023-04-07T04:18:20;97604.50;;;-0.70;77.65
38912;BME280;28444;48.056;14.408;2023-04-07T04:21:08;97605.97;;;-0.69;77.40
38912;BME280;28444;48.056;14.408;2023-04-07T04:23:55;97602.31;;;-0.71;77.64
38912;BME280;28444;48.056;14.408;2023-04-07T04:26:41;97606.22;;;-0.73;78.38
38912;BME280;28444;48.056;14.408;2023-04-07T04:29:28;97601.06;;;-0.70;78.54
38912;BME280;28444;48.056;14.408;2023-04-07T04:32:18;97599.13;;;-0.64;78.71
38912;BME280;28444;48.056;14.408;2023-04-07T04:35:06;97602.09;;;-0.57;77.81
38912;BME280;28444;48.056;14.408;2023-04-07T04:37:53;97600.16;;;-0.51;77.78
38912;BME280;28444;48.056;14.408;2023-04-07T04:40:41;97597.97;;;-0.46;77.33
38912;BME280;28444;48.056;14.408;2023-04-07T04:43:27;97600.41;;;-0.43;77.58
38912;BME280;28444;48.056;14.408;2023-04-07T04:46:16;97603.81;;;-0.48;78.09
38912;BME280;28444;48.056;14.408;2023-04-07T04:49:02;97597.69;;;-0.49;77.83
38912;BME280;28444;48.056;14.408;2023-04-07T04:51:49;97598.69;;;-0.46;77.66
38912;BME280;28444;48.056;14.408;2023-04-07T04:54:36;97588.44;;;-0.31;77.79
38912;BME280;28444;48.056;14.408;2023-04-07T04:57:23;97597.50;;;-0.28;76.67
38912;BME280;28444;48.056;14.408;2023-04-07T05:00:11;97591.16;;;-0.25;76.71
38912;BME280;28444;48.056;14.408;2023-04-07T05:02:58;97598.22;;;-0.22;76.75
38912;BME280;28444;48.056;14.408;2023-04-07T05:05:46;97596.78;;;-0.17;76.55
38912;BME280;28444;48.056;14.408;2023-04-07T05:08:34;97600.19;;;-0.17;76.43
38912;BME280;28444;48.056;14.408;2023-04-07T05:11:21;97603.88;;;-0.14;76.40
38912;BME280;28444;48.056;14.408;2023-04-07T05:14:08;97603.88;;;-0.03;76.28
38912;BME280;28444;48.056;14.408;2023-04-07T05:16:55;97610.69;;;-0.02;75.34
38912;BME280;28444;48.056;14.408;2023-04-07T05:19:42;97603.38;;;0.04;75.76
38912;BME280;28444;48.056;14.408;2023-04-07T05:22:29;97608.28;;;0.00;75.12
38912;BME280;28444;48.056;14.408;2023-04-07T05:25:16;97611.44;;;0.04;75.88
38912;BME280;28444;48.056;14.408;2023-04-07T05:28:03;97603.13;;;0.13;75.91
38912;BME280;28444;48.056;14.408;2023-04-07T05:30:50;97599.19;;;0.14;75.87
38912;BME280;28444;48.056;14.408;2023-04-07T05:33:37;97605.81;;;0.13;75.53
38912;BME280;28444;48.056;14.408;2023-04-07T05:36:24;97604.59;;;0.20;75.29
38912;BME280;28444;48.056;14.408;2023-04-07T05:39:11;97604.56;;;0.31;74.83
38912;BME280;28444;48.056;14.408;2023-04-07T05:41:58;97608.22;;;0.45;74.77
38912;BME280;28444;48.056;14.408;2023-04-07T05:44:45;97611.91;;;0.42;75.10
38912;BME280;28444;48.056;14.408;2023-04-07T05:47:32;97604.56;;;0.48;76.10
38912;BME280;28444;48.056;14.408;2023-04-07T05:50:19;97602.31;;;0.63;75.01
38912;BME280;28444;48.056;14.408;2023-04-07T05:53:06;97599.16;;;0.54;75.22
38912;BME280;28444;48.056;14.408;2023-04-07T05:55:53;97601.06;;;0.70;75.30
38912;BME280;28444;48.056;14.408;2023-04-07T05:58:40;97601.25;;;0.83;75.30
38912;BME280;28444;48.056;14.408;2023-04-07T06:01:28;97598.34;;;0.81;74.52
38912;BME280;28444;48.056;14.408;2023-04-07T06:04:15;97605.16;;;0.93;74.10
38912;BME280;28444;48.056;14.408;2023-04-07T06:07:02;97601.94;;;1.01;74.04
38912;BME280;28444;48.056;14.408;2023-04-07T06:09:49;97610.00;;;1.06;73.32
38912;BME280;28444;48.056;14.408;2023-04-07T06:12:36;97610.69;;;1.12;73.27
38912;BME280;28444;48.056;14.408;2023-04-07T06:15:23;97604.78;;;1.19;72.90
38912;BME280;28444;48.056;14.408;2023-04-07T06:18:10;97606.22;;;1.26;72.55
38912;BME280;28444;48.056;14.408;2023-04-07T06:20:56;97612.03;;;1.41;72.20
38912;BME280;28444;48.056;14.408;2023-04-07T06:23:43;97605.66;;;1.44;71.99
38912;BME280;28444;48.056;14.408;2023-04-07T06:26:31;97609.50;;;1.55;71.67
38912;BME280;28444;48.056;14.408;2023-04-07T06:29:18;97614.25;;;1.37;72.07
38912;BME280;28444;48.056;14.408;2023-04-07T06:32:05;97604.97;;;1.38;72.05
38912;BME280;28444;48.056;14.408;2023-04-07T06:34:52;97607.41;;;1.42;73.23
38912;BME280;28444;48.056;14.408;2023-04-07T06:37:39;97608.53;;;1.52;71.49
38912;BME280;28444;48.056;14.408;2023-04-07T06:40:26;97610.41;;;1.68;71.44
38912;BME280;28444;48.056;14.408;2023-04-07T06:43:13;97605.19;;;1.82;70.50
38912;BME280;28444;48.056;14.408;2023-04-07T06:46:00;97609.00;;;1.92;69.93
38912;BME280;28444;48.056;14.408;2023-04-07T06:48:47;97604.66;;;1.89;70.17
38912;BME280;28444;48.056;14.408;2023-04-07T06:51:34;97600.97;;;1.86;69.45
38912;BME280;28444;48.056;14.408;2023-04-07T06:54:22;97601.41;;;1.96;69.25
38912;BME280;28444;48.056;14.408;2023-04-07T06:57:08;97611.69;;;1.98;69.34
38912;BME280;28444;48.056;14.408;2023-04-07T06:59:57;97595.59;;;2.16;69.80
38912;BME280;28444;48.056;14.408;2023-04-07T07:02:44;97602.81;;;2.33;68.81
38912;BME280;28444;48.056;14.408;2023-04-07T07:05:32;97605.84;;;2.48;69.02
38912;BME280;28444;48.056;14.408;2023-04-07T07:08:19;97611.38;;;2.61;67.94
38912;BME280;28444;48.056;14.408;2023-04-07T07:11:06;97608.94;;;2.82;66.81
38912;BME280;28444;48.056;14.408;2023-04-07T07:13:53;97601.56;;;2.83;66.40
38912;BME280;28444;48.056;14.408;2023-04-07T07:16:40;97605.28;;;2.80;66.81
38912;BME280;28444;48.056;14.408;2023-04-07T07:19:27;97607.13;;;2.91;66.99
38912;BME280;28444;48.056;14.408;2023-04-07T07:22:14;97603.25;;;2.86;67.01
38912;BME280;28444;48.056;14.408;2023-04-07T07:25:01;97602.19;;;3.13;66.59
38912;BME280;28444;48.056;14.408;2023-04-07T07:27:49;97599.94;;;3.36;66.20
38912;BME280;28444;48.056;14.408;2023-04-07T07:30:39;97609.56;;;3.51;65.93
38912;BME280;28444;48.056;14.408;2023-04-07T07:33:29;97611.38;;;3.61;65.90
38912;BME280;28444;48.056;14.408;2023-04-07T07:36:16;97613.50;;;3.69;65.85
38912;BME280;28444;48.056;14.408;2023-04-07T07:39:03;97611.00;;;3.90;63.79
38912;BME280;28444;48.056;14.408;2023-04-07T07:41:51;97613.41;;;3.93;63.94
38912;BME280;28444;48.056;14.408;2023-04-07T07:44:38;97613.22;;;4.04;64.33
38912;BME280;28444;48.056;14.408;2023-04-07T07:47:25;97617.59;;;4.07;64.38
38912;BME280;28444;48.056;14.408;2023-04-07T07:50:12;97616.81;;;4.26;63.43
38912;BME280;28444;48.056;14.408;2023-04-07T07:52:59;97621.41;;;4.31;63.57
38912;BME280;28444;48.056;14.408;2023-04-07T07:55:47;97615.78;;;4.29;63.67
38912;BME280;28444;48.056;14.408;2023-04-07T07:58:34;97616.41;;;4.35;64.11
38912;BME280;28444;48.056;14.408;2023-04-07T08:01:21;97613.06;;;4.29;63.87
38912;BME280;28444;48.056;14.408;2023-04-07T08:04:08;97618.19;;;4.46;63.45
38912;BME280;28444;48.056;14.408;2023-04-07T08:06:55;97614.16;;;4.52;62.85
38912;BME280;28444;48.056;14.408;2023-04-07T08:09:42;97621.63;;;4.46;63.36
38912;BME280;28444;48.056;14.408;2023-04-07T08:12:29;97617.06;;;4.68;63.54
38912;BME280;28444;48.056;14.408;2023-04-07T08:15:16;97612.91;;;4.93;63.29
38912;BME280;28444;48.056;14.408;2023-04-07T08:18:03;97614.97;;;5.00;62.07
38912;BME280;28444;48.056;14.408;2023-04-07T08:20:52;97618.00;;;5.10;61.81
38912;BME280;28444;48.056;14.408;2023-04-07T08:23:39;97619.13;;;5.28;61.32
38912;BME280;28444;48.056;14.408;2023-04-07T08:26:26;97613.16;;;5.29;61.66
38912;BME280;28444;48.056;14.408;2023-04-07T08:29:13;97608.38;;;5.22;62.79
38912;BME280;28444;48.056;14.408;2023-04-07T08:32:01;97610.66;;;5.45;63.10
38912;BME280;28444;48.056;14.408;2023-04-07T08:34:48;97601.13;;;5.51;62.45
38912;BME280;28444;48.056;14.408;2023-04-07T08:37:36;97600.97;;;5.70;60.79
38912;BME280;28444;48.056;14.408;2023-04-07T08:40:23;97600.91;;;5.84;61.31
38912;BME280;28444;48.056;14.408;2023-04-07T08:43:11;97603.78;;;5.99;60.27
38912;BME280;28444;48.056;14.408;2023-04-07T08:46:01;97603.00;;;6.12;58.10
38912;BME280;28444;48.056;14.408;2023-04-07T08:48:50;97595.28;;;6.23;58.54
38912;BME280;28444;48.056;14.408;2023-04-07T08:51:48;97595.94;;;6.37;56.48
38912;BME280;28444;48.056;14.408;2023-04-07T08:54:37;97587.72;;;6.50;58.29
38912;BME280;28444;48.056;14.408;2023-04-07T08:57:24;97585.03;;;6.58;57.83
38912;BME280;28444;48.056;14.408;2023-04-07T09:00:12;97584.94;;;6.71;58.68
38912;BME280;28444;48.056;14.408;2023-04-07T09:02:59;97579.84;;;6.68;57.11
38912;BME280;28444;48.056;14.408;2023-04-07T09:05:48;97575.56;;;6.80;58.45
38912;BME280;28444;48.056;14.408;2023-04-07T09:08:35;97568.03;;;6.94;58.01
38912;BME280;28444;48.056;14.408;2023-04-07T09:11:22;97564.28;;;7.05;57.54
38912;BME280;28444;48.056;14.408;2023-04-07T09:14:09;97563.25;;;7.23;55.56
38912;BME280;28444;48.056;14.408;2023-04-07T09:16:56;97569.97;;;7.30;55.91
38912;BME280;28444;48.056;14.408;2023-04-07T09:19:46;97560.34;;;7.29;56.12
38912;BME280;28444;48.056;14.408;2023-04-07T09:22:41;97556.94;;;7.43;57.08
38912;BME280;28444;48.056;14.408;2023-04-07T09:25:28;97554.09;;;7.57;54.76
38912;BME280;28444;48.056;14.408;2023-04-07T09:28:16;97546.47;;;7.63;55.50
38912;BME280;28444;48.056;14.408;2023-04-07T09:31:03;97546.47;;;7.63;55.73
38912;BME280;28444;48.056;14.408;2023-04-07T09:33:49;97543.22;;;7.72;55.96
38912;BME280;28444;48.056;14.408;2023-04-07T09:36:40;97545.41;;;7.81;55.52
38912;BME280;28444;48.056;14.408;2023-04-07T09:39:28;97539.41;;;8.06;53.86
38912;BME280;28444;48.056;14.408;2023-04-07T09:42:15;97539.94;;;8.27;53.51
38912;BME280;28444;48.056;14.408;2023-04-07T09:45:02;97539.41;;;8.21;55.09
38912;BME280;28444;48.056;14.408;2023-04-07T09:47:49;97528.13;;;8.32;55.25
38912;BME280;28444;48.056;14.408;2023-04-07T09:50:40;97535.91;;;8.59;53.14
38912;BME280;28444;48.056;14.408;2023-04-07T09:54:03;97529.53;;;8.64;53.21
38912;BME280;28444;48.056;14.408;2023-04-07T09:56:50;97527.88;;;8.76;55.23
38912;BME280;28444;48.056;14.408;2023-04-07T09:59:40;97529.22;;;9.00;52.00
38912;BME280;28444;48.056;14.408;2023-04-07T10:02:30;97524.50;;;9.08;50.12
38912;BME280;28444;48.056;14.408;2023-04-07T10:05:18;97518.31;;;9.00;47.85
38912;BME280;28444;48.056;14.408;2023-04-07T10:08:08;97514.13;;;9.07;48.18
38912;BME280;28444;48.056;14.408;2023-04-07T10:10:56;97510.25;;;9.18;48.69
38912;BME280;28444;48.056;14.408;2023-04-07T10:13:44;97508.19;;;9.26;47.78
38912;BME280;28444;48.056;14.408;2023-04-07T10:16:33;97508.50;;;9.37;49.31
38912;BME280;28444;48.056;14.408;2023-04-07T10:19:20;97510.38;;;9.60;46.51
38912;BME280;28444;48.056;14.408;2023-04-07T10:22:08;97506.28;;;9.94;46.25
38912;BME280;28444;48.056;14.408;2023-04-07T10:25:07;97502.09;;;10.18;45.49
38912;BME280;28444;48.056;14.408;2023-04-07T10:27:59;97500.53;;;10.07;44.20
38912;BME280;28444;48.056;14.408;2023-04-07T10:30:49;97495.69;;;9.98;46.99
38912;BME280;28444;48.056;14.408;2023-04-07T10:33:47;97500.59;;;9.99;47.12
38912;BME280;28444;48.056;14.408;2023-04-07T10:36:34;97495.72;;;10.15;45.45
38912;BME280;28444;48.056;14.408;2023-04-07T10:39:22;97491.09;;;10.25;45.64
38912;BME280;28444;48.056;14.408;2023-04-07T10:45:54;97492.00;;;10.28;43.25
38912;BME280;28444;48.056;14.408;2023-04-07T10:49:07;97489.34;;;10.38;42.22
38912;BME280;28444;48.056;14.408;2023-04-07T10:52:30;97488.69;;;10.47;40.59
38912;BME280;28444;48.056;14.408;2023-04-07T10:55:53;97479.31;;;10.15;41.52
38912;BME280;28444;48.056;14.408;2023-04-07T10:58:40;97483.72;;;9.93;39.98
38912;BME280;28444;48.056;14.408;2023-04-07T11:01:27;97486.50;;;9.85;42.81
38912;BME280;28444;48.056;14.408;2023-04-07T11:04:14;97484.56;;;9.78;41.50
38912;BME280;28444;48.056;14.408;2023-04-07T11:07:01;97478.78;;;9.74;42.44
38912;BME280;28444;48.056;14.408;2023-04-07T11:09:48;97472.31;;;9.62;44.63
38912;BME280;28444;48.056;14.408;2023-04-07T11:12:36;97474.25;;;9.69;46.20
38912;BME280;28444;48.056;14.408;2023-04-07T11:15:23;97473.44;;;9.59;39.83
38912;BME280;28444;48.056;14.408;2023-04-07T11:18:17;97468.41;;;9.73;44.42
38912;BME280;28444;48.056;14.408;2023-04-07T11:21:06;97472.56;;;9.99;42.67
38912;BME280;28444;48.056;14.408;2023-04-07T11:23:53;97463.63;;;9.98;41.04
38912;BME280;28444;48.056;14.408;2023-04-07T11:26:40;97461.00;;;10.08;39.45
38912;BME280;28444;48.056;14.408;2023-04-07T11:29:30;97459.31;;;10.12;40.97
38912;BME280;28444;48.056;14.408;2023-04-07T11:32:22;97458.75;;;10.14;40.92
38912;BME280;28444;48.056;14.408;2023-04-07T11:35:12;97459.13;;;9.93;38.98
38912;BME280;28444;48.056;14.408;2023-04-07T11:37:59;97452.56;;;9.96;40.67
38912;BME280;28444;48.056;14.408;2023-04-07T11:40:47;97453.13;;;10.12;40.21
38912;BME280;28444;48.056;14.408;2023-04-07T11:43:34;97440.53;;;10.34;38.84
38912;BME280;28444;48.056;14.408;2023-04-07T11:46:23;97436.34;;;10.68;40.61
38912;BME280;28444;48.056;14.408;2023-04-07T11:49:12;97432.94;;;10.77;40.11
38912;BME280;28444;48.056;14.408;2023-04-07T11:52:02;97435.28;;;11.07;39.30
38912;BME280;28444;48.056;14.408;2023-04-07T11:54:50;97428.34;;;11.33;39.81
38912;BME280;28444;48.056;14.408;2023-04-07T11:57:37;97431.72;;;11.51;38.86
38912;BME280;28444;48.056;14.408;2023-04-07T12:00:24;97427.97;;;11.56;38.67
38912;BME280;28444;48.056;14.408;2023-04-07T12:03:11;97423.34;;;11.49;38.25
38912;BME280;28444;48.056;14.408;2023-04-07T12:06:03;97413.03;;;11.30;37.59
38912;BME280;28444;48.056;14.408;2023-04-07T12:08:50;97419.84;;;11.39;39.83
38912;BME280;28444;48.056;14.408;2023-04-07T12:11:48;97409.78;;;11.42;38.68
38912;BME280;28444;48.056;14.408;2023-04-07T12:14:35;97409.38;;;11.55;39.09
38912;BME280;28444;48.056;14.408;2023-04-07T12:17:24;97412.22;;;11.38;37.25
38912;BME280;28444;48.056;14.408;2023-04-07T12:20:12;97408.09;;;11.56;37.88
38912;BME280;28444;48.056;14.408;2023-04-07T12:22:59;97405.66;;;11.70;39.62
38912;BME280;28444;48.056;14.408;2023-04-07T12:25:47;97397.78;;;11.84;40.93
38912;BME280;28444;48.056;14.408;2023-04-07T12:28:34;97402.94;;;11.70;37.45
38912;BME280;28444;48.056;14.408;2023-04-07T12:31:20;97396.16;;;11.71;37.93
38912;BME280;28444;48.056;14.408;2023-04-07T12:34:08;97403.81;;;11.82;39.46
38912;BME280;28444;48.056;14.408;2023-04-07T12:36:55;97400.97;;;11.90;37.28
38912;BME280;28444;48.056;14.408;2023-04-07T12:39:42;97399.63;;;11.81;37.52
38912;BME280;28444;48.056;14.408;2023-04-07T12:42:29;97397.78;;;11.93;36.52
38912;BME280;28444;48.056;14.408;2023-04-07T12:45:16;97407.91;;;12.00;36.86
38912;BME280;28444;48.056;14.408;2023-04-07T12:48:03;97401.28;;;12.13;37.36
38912;BME280;28444;48.056;14.408;2023-04-07T12:50:50;97394.19;;;12.20;37.94
38912;BME280;28444;48.056;14.408;2023-04-07T12:53:37;97399.69;;;12.10;36.62
38912;BME280;28444;48.056;14.408;2023-04-07T12:56:24;97390.31;;;12.33;36.84
38912;BME280;28444;48.056;14.408;2023-04-07T12:59:11;97392.03;;;12.47;36.04
38912;BME280;28444;48.056;14.408;2023-04-07T13:01:59;97396.50;;;12.43;37.88
38912;BME280;28444;48.056;14.408;2023-04-07T13:04:46;97393.50;;;12.39;36.08
38912;BME280;28444;48.056;14.408;2023-04-07T13:07:33;97395.50;;;12.38;38.09
38912;BME280;28444;48.056;14.408;2023-04-07T13:10:21;97386.84;;;12.32;37.54
38912;BME280;28444;48.056;14.408;2023-04-07T13:13:08;97391.88;;;12.16;37.51
38912;BME280;28444;48.056;14.408;2023-04-07T13:15:56;97382.38;;;12.17;37.08
38912;BME280;28444;48.056;14.408;2023-04-07T13:18:43;97377.34;;;12.14;37.54
38912;BME280;28444;48.056;14.408;2023-04-07T13:21:30;97381.38;;;12.22;38.78
38912;BME280;28444;48.056;14.408;2023-04-07T13:24:19;97379.19;;;12.31;38.54
38912;BME280;28444;48.056;14.408;2023-04-07T13:27:07;97368.09;;;12.19;36.42
38912;BME280;28444;48.056;14.408;2023-04-07T13:29:54;97369.97;;;12.16;38.56
38912;BME280;28444;48.056;14.408;2023-04-07T13:32:41;97370.97;;;12.31;39.32
38912;BME280;28444;48.056;14.408;2023-04-07T13:35:28;97370.41;;;12.22;39.80
38912;BME280;28444;48.056;14.408;2023-04-07T13:38:21;97366.78;;;12.00;38.62
38912;BME280;28444;48.056;14.408;2023-04-07T13:41:08;97366.22;;;11.92;37.86
38912;BME280;28444;48.056;14.408;2023-04-07T13:43:55;97370.81;;;11.90;38.75
38912;BME280;28444;48.056;14.408;2023-04-07T13:46:42;97362.47;;;11.88;39.25
38912;BME280;28444;48.056;14.408;2023-04-07T13:49:29;97366.50;;;11.96;39.08
38912;BME280;28444;48.056;14.408;2023-04-07T13:52:16;97364.63;;;11.89;39.18
38912;BME280;28444;48.056;14.408;2023-04-07T13:55:04;97356.13;;;11.95;41.20
38912;BME280;28444;48.056;14.408;2023-04-07T13:57:51;97356.56;;;11.91;38.46
38912;BME280;28444;48.056;14.408;2023-04-07T14:00:38;97351.34;;;11.86;39.84
38912;BME280;28444;48.056;14.408;2023-04-07T14:03:26;97341.38;;;11.80;38.73
38912;BME280;28444;48.056;14.408;2023-04-07T14:06:15;97343.44;;;11.90;38.63
38912;BME280;28444;48.056;14.408;2023-04-07T14:09:02;97340.41;;;11.86;39.60
38912;BME280;28444;48.056;14.408;2023-04-07T14:11:49;97340.09;;;11.81;38.89
38912;BME280;28444;48.056;14.408;2023-04-07T14:14:37;97333.75;;;11.69;39.04
38912;BME280;28444;48.056;14.408;2023-04-07T14:17:24;97338.19;;;11.74;39.03
38912;BME280;28444;48.056;14.408;2023-04-07T14:20:11;97330.25;;;11.59;38.54
38912;BME280;28444;48.056;14.408;2023-04-07T14:22:58;97330.22;;;11.40;39.50
38912;BME280;28444;48.056;14.408;2023-04-07T14:25:45;97324.16;;;11.31;41.70
38912;BME280;28444;48.056;14.408;2023-04-07T14:28:33;97326.28;;;11.23;39.95
38912;BME280;28444;48.056;14.408;2023-04-07T14:31:20;97336.09;;;11.26;40.33
38912;BME280;28444;48.056;14.408;2023-04-07T14:34:07;97327.72;;;11.24;43.54
38912;BME280;28444;48.056;14.408;2023-04-07T14:36:55;97327.72;;;11.24;41.41
38912;BME280;28444;48.056;14.408;2023-04-07T14:39:44;97319.56;;;11.34;40.27
38912;BME280;28444;48.056;14.408;2023-04-07T14:42:47;97320.56;;;11.39;41.25
38912;BME280;28444;48.056;14.408;2023-04-07T14:45:34;97324.03;;;11.49;41.29
38912;BME280;28444;48.056;14.408;2023-04-07T14:48:21;97324.19;;;11.51;42.81
38912;BME280;28444;48.056;14.408;2023-04-07T14:51:10;97328.69;;;11.66;41.54
38912;BME280;28444;48.056;14.408;2023-04-07T14:53:58;97325.78;;;11.64;41.78